Spaulding, Illinois
Current Conditions -  °F | °C
As of 2:52 AM on Sunday 21 Dec 2014 (Local Time) from KSPI Reporting Station
Overcast Overcast  
Wind Chill: 29°   Ceiling: 3600
Heat Index: 37°   Visibility: 10mi
Dew Point: 31°   Wind: 12mph
Humidity: 79%   Direction: 180°S
Pressure: 30.22"   Gusts: NA
Location:  39.8576°N, 89.5214°W
Report Text: KSPI 210852Z AUTO 18010KT 10SM OVC036 03/M01 A3022 RMK AO2 SLP237 T00281006 56005
Loading
Personal Weather Stations






























Interactive Weather Map New forecast layout! Learn more

10-Day Weather Forecast

Advertisements
Track Severe Weather on mobile